createdAt,value
2022-08-09T00:00:29.036Z,21.7
2022-08-09T00:02:29.240Z,20.5
2022-08-09T00:04:34.773Z,22.4
2022-08-09T00:06:29.940Z,22
2022-08-09T00:08:32.138Z,24.7
2022-08-09T00:10:30.491Z,20.5
2022-08-09T00:12:34.583Z,23.3
2022-08-09T00:14:38.325Z,20.7
2022-08-09T00:16:36.826Z,24.4
2022-08-09T00:18:34.819Z,23.7
2022-08-09T00:20:31.671Z,24.2
2022-08-09T00:22:35.255Z,21.3
2022-08-09T00:24:32.375Z,23.1
2022-08-09T00:26:33.282Z,25.8
2022-08-09T00:28:34.797Z,25
2022-08-09T00:30:33.320Z,25.4
2022-08-09T00:32:33.282Z,25.3
2022-08-09T00:34:33.703Z,28.8
2022-08-09T00:36:33.967Z,27.2
2022-08-09T00:38:34.144Z,27.6
2022-08-09T00:40:34.498Z,25
2022-08-09T00:44:17.021Z,23.9
2022-08-09T00:44:37.539Z,27.2
2022-08-09T00:46:56.285Z,26.5
2022-08-09T00:48:35.680Z,29.3
2022-08-09T00:50:37.777Z,29.3
2022-08-09T00:52:37.005Z,29.3
2022-08-09T00:54:36.640Z,34.8
2022-08-09T00:56:36.439Z,32.3
2022-08-09T00:58:36.839Z,32.2
2022-08-09T01:00:39.996Z,35.6
2022-08-09T01:02:40.304Z,35.2
2022-08-09T01:04:49.411Z,37.1
2022-08-09T01:06:54.704Z,36.2
2022-08-09T01:08:48.895Z,36.7
2022-08-09T01:10:51.399Z,38.3
2022-08-09T01:12:44.775Z,41
2022-08-09T01:14:44.548Z,39.5
2022-08-09T01:16:47.442Z,38
2022-08-09T01:18:47.485Z,36
2022-08-09T01:20:48.916Z,38.3
2022-08-09T01:22:55.112Z,34.6
2022-08-09T01:24:50.507Z,38.2
2022-08-09T01:26:53.600Z,39.5
2022-08-09T01:28:46.652Z,48.5
2022-08-09T01:30:52.476Z,41.6
2022-08-09T01:32:45.980Z,38.7
2022-08-09T01:34:44.160Z,43.1
2022-08-09T01:36:44.232Z,45.2
2022-08-09T01:38:46.795Z,44.5
2022-08-09T01:40:52.398Z,48.9
2022-08-09T01:42:43.966Z,47.5
2022-08-09T01:44:44.526Z,49.5
2022-08-09T01:46:47.067Z,51
2022-08-09T01:48:46.393Z,50.1
2022-08-09T01:50:49.107Z,47.9
2022-08-09T01:52:45.506Z,44.8
2022-08-09T01:54:48.526Z,45.9
2022-08-09T01:56:51.728Z,43.2
2022-08-09T01:58:49.152Z,44.6
2022-08-09T02:00:46.251Z,40.2
2022-08-09T02:02:49.440Z,38.1
2022-08-09T02:04:46.699Z,37.3
2022-08-09T02:06:54.447Z,33
2022-08-09T02:08:57.725Z,36.2
2022-08-09T02:10:51.116Z,33.7
2022-08-09T02:12:47.422Z,34.7
2022-08-09T02:14:51.733Z,34.5
2022-08-09T02:16:59.165Z,37.9
2022-08-09T02:18:47.670Z,42.5
2022-08-09T02:20:51.467Z,37
2022-08-09T02:22:53.170Z,40.6
2022-08-09T02:24:52.813Z,45.3
2022-08-09T02:26:50.901Z,40.5
2022-08-09T02:28:53.214Z,46.1
2022-08-09T02:30:53.189Z,50.1
2022-08-09T02:32:50.961Z,47.2
2022-08-09T02:34:55.864Z,46.6
2022-08-09T02:36:53.549Z,47.5
2022-08-09T02:38:53.505Z,47.1
2022-08-09T02:40:52.752Z,43.7
2022-08-09T02:42:54.398Z,44.7
2022-08-09T02:44:55.105Z,42
2022-08-09T02:46:53.197Z,43
2022-08-09T02:48:54.257Z,45.3
2022-08-09T02:50:56.410Z,46.8
2022-08-09T02:52:55.764Z,43.5
2022-08-09T02:54:54.979Z,41.8
2022-08-09T02:56:57.102Z,40.1
2022-08-09T02:58:53.721Z,43
2022-08-09T03:00:57.834Z,42.8
2022-08-09T03:02:58.422Z,39.6
2022-08-09T03:04:54.287Z,43.1
2022-08-09T03:06:54.663Z,39.3
2022-08-09T03:08:54.991Z,37.2
2022-08-09T03:10:54.877Z,38.6
2022-08-09T03:12:55.908Z,34
2022-08-09T03:14:56.564Z,39.7
2022-08-09T03:16:55.887Z,35.3
2022-08-09T03:18:55.842Z,42.1
2022-08-09T03:20:56.074Z,39.2
2022-08-09T03:22:58.165Z,42.2
2022-08-09T03:25:05.614Z,30.2
2022-08-09T03:26:56.328Z,38.8
2022-08-09T03:28:57.282Z,33.6
2022-08-09T03:30:57.485Z,31
2022-08-09T03:32:58.584Z,31.9
2022-08-09T03:34:58.058Z,31.8
2022-08-09T03:37:02.500Z,31.4
2022-08-09T03:38:57.385Z,28.1
2022-08-09T03:40:57.705Z,27.5
2022-08-09T03:42:57.969Z,29.7
2022-08-09T03:44:58.186Z,26.3
2022-08-09T03:46:58.486Z,28.4
2022-08-09T03:49:04.212Z,25.9
2022-08-09T03:50:59.799Z,29.8
2022-08-09T03:53:03.125Z,24.9
2022-08-09T03:55:07.503Z,25.8
2022-08-09T03:57:04.475Z,25.8
2022-08-09T03:59:00.035Z,23.7
2022-08-09T04:01:00.850Z,25.2
2022-08-09T04:03:00.683Z,22.6
2022-08-09T04:05:05.991Z,22.5
2022-08-09T04:07:01.907Z,22.9
2022-08-09T04:09:01.362Z,24.2
2022-08-09T04:11:02.057Z,23.7
2022-08-09T04:13:03.986Z,22.4
2022-08-09T04:15:11.532Z,22.7
2022-08-09T04:17:02.230Z,19.2
2022-08-09T04:19:02.507Z,21.1
2022-08-09T04:21:03.132Z,18.2
2022-08-09T04:23:03.128Z,19.7
2022-08-09T04:25:04.684Z,20
2022-08-09T04:27:03.645Z,18.8
2022-08-09T04:29:09.592Z,19.9
2022-08-09T04:31:05.679Z,18.7
2022-08-09T04:33:04.131Z,19.3
2022-08-09T04:35:06.025Z,22
2022-08-09T04:37:04.816Z,21.3
2022-08-09T04:39:06.656Z,17.9
2022-08-09T04:41:05.502Z,17.1
2022-08-09T04:43:05.674Z,20.2
2022-08-09T04:45:06.854Z,18.4
2022-08-09T04:47:06.414Z,19.8
2022-08-09T04:49:06.749Z,17.5
2022-08-09T04:51:06.738Z,18.4
2022-08-09T04:53:07.424Z,15.7
2022-08-09T04:55:08.623Z,18.5
2022-08-09T04:57:09.935Z,15
2022-08-09T04:59:08.019Z,15.6
2022-08-09T05:01:16.508Z,14.6
2022-08-09T05:03:12.916Z,16.1
2022-08-09T05:05:09.925Z,12.2
2022-08-09T05:07:12.757Z,13.8
2022-08-09T05:09:09.010Z,14
2022-08-09T05:11:09.306Z,11.3
2022-08-09T05:13:10.789Z,12.9
2022-08-09T05:15:11.536Z,12.5
2022-08-09T05:17:15.136Z,12.6
2022-08-09T05:19:10.385Z,11.9
2022-08-09T05:21:23.346Z,11.5
2022-08-09T05:23:55.319Z,11.1
2022-08-09T05:25:11.688Z,11.2
2022-08-09T05:27:11.609Z,11.3
2022-08-09T05:29:17.597Z,10.4
2022-08-09T05:31:12.359Z,10.2
2022-08-09T05:33:12.802Z,11.4
2022-08-09T05:35:12.691Z,9.9
2022-08-09T05:37:12.805Z,10.9
2022-08-09T05:39:13.167Z,14.5
2022-08-09T05:41:13.487Z,9.6
2022-08-09T05:43:13.652Z,10.4
2022-08-09T05:45:14.464Z,9.2
2022-08-09T05:47:14.296Z,8.5
2022-08-09T05:50:05.848Z,10.4
2022-08-09T05:51:30.068Z,9.1
2022-08-09T05:53:21.665Z,5.9
2022-08-09T05:55:20.564Z,7.7
2022-08-09T05:57:17.633Z,8.4
2022-08-09T05:59:15.972Z,5.2
2022-08-09T06:01:16.734Z,6.1
2022-08-09T06:03:20.082Z,7.3
2022-08-09T06:05:17.061Z,8.1
2022-08-09T06:07:21.980Z,8
2022-08-09T06:09:23.210Z,8.8
2022-08-09T06:11:17.953Z,9.7
2022-08-09T06:13:20.622Z,8.6
2022-08-09T06:15:18.462Z,7.8
2022-08-09T06:17:18.826Z,9.2
2022-08-09T06:19:19.174Z,9.1
2022-08-09T06:21:19.442Z,5.1
2022-08-09T06:23:19.855Z,8
2022-08-09T06:25:21.290Z,4.8
2022-08-09T06:27:20.391Z,7.4
2022-08-09T06:29:21.507Z,4.9
2022-08-09T06:31:31.591Z,9.5
2022-08-09T06:33:35.220Z,4.6
2022-08-09T06:35:21.754Z,3.5
2022-08-09T06:37:22.002Z,6.3
2022-08-09T06:39:22.411Z,9.8
2022-08-09T06:41:23.461Z,6.1
2022-08-09T06:43:23.061Z,5.4
2022-08-09T06:46:05.558Z,6.2
2022-08-09T06:47:24.173Z,5.9
2022-08-09T06:49:44.875Z,6.7
2022-08-09T06:51:24.427Z,6.1
2022-08-09T06:53:24.799Z,9.2
2022-08-09T06:55:25.059Z,7.5
2022-08-09T06:57:42.758Z,12.9
2022-08-09T07:00:49.652Z,8.8
2022-08-09T07:01:35.630Z,22.9
2022-08-09T07:03:28.804Z,8.9
2022-08-09T07:06:02.240Z,7.4
2022-08-09T07:07:28.542Z,7.6
2022-08-09T07:09:55.092Z,9.3
2022-08-09T07:11:27.656Z,8.8
2022-08-09T07:13:29.700Z,10.2
2022-08-09T07:15:54.075Z,10.1
2022-08-09T07:17:28.583Z,9
2022-08-09T07:19:28.952Z,8.4
2022-08-09T07:21:31.042Z,10
2022-08-09T07:23:29.540Z,6.9
2022-08-09T07:25:29.936Z,11.5
2022-08-09T07:27:34.504Z,5.7
2022-08-09T07:29:37.993Z,8.4
2022-08-09T07:31:31.010Z,6.6
2022-08-09T07:33:52.299Z,7
2022-08-09T07:35:31.756Z,7.9
2022-08-09T07:37:31.886Z,8.6
2022-08-09T07:39:41.278Z,8.3
2022-08-09T07:41:38.667Z,7
2022-08-09T07:43:32.866Z,8.8
2022-08-09T07:45:39.605Z,9.8
2022-08-09T07:47:39.410Z,8.2
2022-08-09T07:49:33.885Z,12.1
2022-08-09T07:52:05.877Z,14.6
2022-08-09T07:53:36.456Z,10.3
2022-08-09T07:56:02.840Z,9.7
2022-08-09T07:57:35.907Z,7.4
2022-08-09T07:59:51.020Z,8
2022-08-09T08:01:36.032Z,8.6
2022-08-09T08:03:36.958Z,10.1
2022-08-09T08:05:39.144Z,10.8
2022-08-09T08:08:43.766Z,16.6
2022-08-09T08:09:42.972Z,17.1
2022-08-09T08:12:10.166Z,15.8
2022-08-09T08:13:44.993Z,8.8
2022-08-09T08:15:39.431Z,9.9
2022-08-09T08:17:54.673Z,12.1
2022-08-09T08:19:39.047Z,18.6
2022-08-09T08:21:39.743Z,12.1
2022-08-09T08:23:40.997Z,11.5
2022-08-09T08:25:45.991Z,14.6
2022-08-09T08:27:42.998Z,12.8
2022-08-09T08:29:48.717Z,15.4
2022-08-09T08:32:04.131Z,13
2022-08-09T08:33:53.316Z,13
2022-08-09T08:35:58.514Z,9.1
2022-08-09T08:38:02.289Z,9.8
2022-08-09T08:39:44.167Z,10.8
2022-08-09T08:41:51.432Z,14.7
2022-08-09T08:43:43.848Z,10.3
2022-08-09T08:45:53.272Z,12.1
2022-08-09T08:47:44.927Z,10.1
2022-08-09T08:49:46.767Z,8.5
2022-08-09T08:52:00.200Z,13.3
2022-08-09T08:54:03.394Z,11.5
2022-08-09T08:55:45.009Z,14.5
2022-08-09T08:57:56.385Z,15
2022-08-09T08:59:46.597Z,11.2
2022-08-09T09:01:52.886Z,23.1
2022-08-09T09:03:50.396Z,13.6
2022-08-09T09:06:03.251Z,16.6
2022-08-09T09:07:48.719Z,10.7
2022-08-09T09:10:01.409Z,14.1
2022-08-09T09:11:48.010Z,12.8
2022-08-09T09:13:57.253Z,16.9
2022-08-09T09:15:49.124Z,19.7
2022-08-09T09:17:52.712Z,18.3
2022-08-09T09:19:49.172Z,15.3
2022-08-09T09:21:58.761Z,14.7
2022-08-09T09:23:58.311Z,23.9
2022-08-09T09:26:04.238Z,22.7
2022-08-09T09:28:05.728Z,19.8
2022-08-09T09:30:12.133Z,15.8
2022-08-09T09:32:03.974Z,21.3
2022-08-09T09:33:57.417Z,13.7
2022-08-09T09:36:01.538Z,13.9
2022-08-09T09:37:53.556Z,17.3
2022-08-09T09:39:55.519Z,13.5
2022-08-09T09:41:54.451Z,14.7
2022-08-09T09:44:12.463Z,11.4
2022-08-09T09:45:57.342Z,16.6
2022-08-09T09:47:58.306Z,16.5
2022-08-09T09:50:14.430Z,16.1
2022-08-09T09:52:02.710Z,16.6
2022-08-09T09:54:20.668Z,12.7
2022-08-09T09:56:05.147Z,17
2022-08-09T09:58:02.411Z,12
2022-08-09T09:59:55.879Z,10.7
2022-08-09T10:01:59.393Z,12
2022-08-09T10:03:59.574Z,14
2022-08-09T10:06:03.290Z,23
2022-08-09T10:08:26.933Z,58.3
2022-08-09T10:09:58.832Z,45.7
2022-08-09T10:12:14.176Z,41.8
2022-08-09T10:13:58.978Z,39.6
2022-08-09T10:16:55.204Z,30
2022-08-09T10:18:10.510Z,19.2
2022-08-09T10:20:00.149Z,17.2
2022-08-09T10:22:00.323Z,14.1
2022-08-09T10:24:00.874Z,19
2022-08-09T10:26:07.417Z,16.2
2022-08-09T10:28:01.041Z,15.6
2022-08-09T10:30:27.236Z,16.1
2022-08-09T10:34:11.050Z,18.8
2022-08-09T10:36:03.200Z,14.4
2022-08-09T10:38:04.670Z,12.7
2022-08-09T10:40:05.735Z,15.6
2022-08-09T10:42:04.687Z,17.6
2022-08-09T10:44:04.014Z,17.1
2022-08-09T10:46:32.743Z,17
2022-08-09T10:48:19.248Z,31.6
2022-08-09T10:50:16.586Z,27.8
2022-08-09T10:52:20.323Z,18.8
2022-08-09T10:54:12.173Z,22
2022-08-09T10:56:22.783Z,14.9
2022-08-09T10:58:05.978Z,13
2022-08-09T11:00:34.470Z,12.9
2022-08-09T11:03:07.022Z,14.4
2022-08-09T11:04:19.735Z,14.3
2022-08-09T11:06:18.720Z,12.4
2022-08-09T11:08:43.749Z,11.8
2022-08-09T11:10:09.368Z,16.6
2022-08-09T11:12:11.321Z,12.2
2022-08-09T11:14:31.757Z,13.4
2022-08-09T11:16:35.668Z,10.8
2022-08-09T11:18:09.412Z,14
2022-08-09T11:20:22.605Z,12.4
2022-08-09T11:22:18.720Z,14.1
2022-08-09T11:24:10.500Z,11.6
2022-08-09T11:26:38.366Z,14.2
2022-08-09T11:28:56.306Z,13.1
2022-08-09T11:30:32.150Z,12
2022-08-09T11:32:41.350Z,20
2022-08-09T11:34:26.555Z,13.1
2022-08-09T11:36:30.522Z,18.2
2022-08-09T11:38:16.218Z,14.2
2022-08-09T11:40:17.977Z,10.8
2022-08-09T11:42:37.310Z,11.5
2022-08-09T11:44:13.851Z,8.6
2022-08-09T11:46:26.810Z,9.9
2022-08-09T11:48:26.815Z,11.2
2022-08-09T11:50:55.019Z,9
2022-08-09T11:53:16.333Z,14.4
2022-08-09T11:54:28.581Z,16.3
2022-08-09T11:56:42.431Z,9.8
2022-08-09T11:58:50.178Z,9.3
2022-08-09T12:00:19.563Z,8.2
2022-08-09T12:02:37.392Z,10.5
2022-08-09T12:04:20.876Z,9.4
2022-08-09T12:06:26.441Z,8.4
2022-08-09T12:08:21.435Z,13.7
2022-08-09T12:10:38.391Z,9
2022-08-09T12:12:20.223Z,11.7
2022-08-09T12:14:36.367Z,7.7
2022-08-09T12:16:30.753Z,8.9
2022-08-09T12:18:29.546Z,7.3
2022-08-09T12:20:23.023Z,7.7
2022-08-09T12:22:21.969Z,11.4
2022-08-09T12:24:22.486Z,11
2022-08-09T12:26:26.148Z,21.8
2022-08-09T12:29:09.975Z,49.5
2022-08-09T12:30:36.991Z,24.8
2022-08-09T12:32:25.844Z,26.4
2022-08-09T12:34:32.262Z,23.6
2022-08-09T12:36:31.346Z,19.3
2022-08-09T12:38:29.815Z,11.8
2022-08-09T12:40:24.611Z,15.2
2022-08-09T12:42:25.796Z,10.1
2022-08-09T12:44:24.810Z,8.7
2022-08-09T12:46:25.942Z,6.2
2022-08-09T12:48:33.010Z,7.2
2022-08-09T12:50:25.847Z,7.6
2022-08-09T12:52:42.715Z,9
2022-08-09T12:54:27.014Z,11.2
2022-08-09T12:56:39.669Z,6.5
2022-08-09T12:58:28.438Z,13.4
2022-08-09T13:00:29.301Z,9.7
2022-08-09T13:02:27.939Z,6.1
2022-08-09T13:04:36.497Z,9.8
2022-08-09T13:06:34.639Z,14.2
2022-08-09T13:08:39.704Z,8.1
2022-08-09T13:10:34.604Z,20.4
2022-08-09T13:12:30.730Z,8.1
2022-08-09T13:14:40.761Z,7.4
2022-08-09T13:16:44.891Z,10.7
2022-08-09T13:18:42.508Z,8.8
2022-08-09T13:20:37.938Z,7.4
2022-08-09T13:22:38.317Z,12.2
2022-08-09T13:24:53.708Z,9.8
2022-08-09T13:26:36.511Z,11.2
2022-08-09T13:28:35.781Z,12.9
2022-08-09T13:31:10.997Z,7.9
2022-08-09T13:32:45.924Z,11.9
2022-08-09T13:34:39.972Z,9.8
2022-08-09T13:36:41.306Z,13.4
2022-08-09T13:38:57.679Z,12.3
2022-08-09T13:41:46.556Z,10.1
2022-08-09T13:42:36.190Z,10.9
2022-08-09T13:44:36.206Z,7.8
2022-08-09T13:47:16.671Z,9.7
2022-08-09T13:48:37.702Z,8.1
2022-08-09T13:50:37.123Z,6.3
2022-08-09T13:52:37.761Z,5.9
2022-08-09T13:54:43.011Z,8.6
2022-08-09T13:56:39.712Z,7.3
2022-08-09T13:58:38.585Z,8.3
2022-08-09T14:00:46.794Z,10.3
2022-08-09T14:02:42.710Z,9.4
2022-08-09T14:04:39.789Z,5.9
2022-08-09T14:06:43.681Z,7.3
2022-08-09T14:08:41.153Z,8.1
2022-08-09T14:10:49.379Z,10.6
2022-08-09T14:12:41.206Z,15
2022-08-09T14:14:41.553Z,6.7
2022-08-09T14:16:42.008Z,8.9
2022-08-09T14:18:46.051Z,12.8
2022-08-09T14:20:42.677Z,8.9
2022-08-09T14:22:43.094Z,12.4
2022-08-09T14:24:53.441Z,21.8
2022-08-09T14:26:45.061Z,12.7
2022-08-09T14:28:44.139Z,14.9
2022-08-09T14:30:44.472Z,9.1
2022-08-09T14:32:44.846Z,16.3
2022-08-09T14:34:45.287Z,17.6
2022-08-09T14:36:48.747Z,8.7
2022-08-09T14:38:46.018Z,9.8
2022-08-09T14:41:02.002Z,20.2
2022-08-09T14:42:47.030Z,5.2
2022-08-09T14:44:59.085Z,6.6
2022-08-09T14:47:01.488Z,6.6
2022-08-09T14:48:48.101Z,5.4
2022-08-09T14:50:48.415Z,7.6
2022-08-09T14:52:50.822Z,11.9
2022-08-09T14:54:49.098Z,8.2
2022-08-09T14:56:57.369Z,7.9
2022-08-09T14:58:49.865Z,7.1
2022-08-09T15:00:51.938Z,6.6
2022-08-09T15:02:52.014Z,5
2022-08-09T15:04:50.921Z,3.9
2022-08-09T15:06:51.783Z,6.4
2022-08-09T15:08:56.370Z,16
2022-08-09T15:11:00.742Z,16.2
2022-08-09T15:12:52.954Z,13.2
2022-08-09T15:14:52.774Z,7.5
2022-08-09T15:16:53.202Z,10.4
2022-08-09T15:18:54.078Z,7.8
2022-08-09T15:21:56.427Z,11.2
2022-08-09T15:23:03.202Z,8.7
2022-08-09T15:24:54.650Z,5.2
2022-08-09T15:26:54.996Z,5.6
2022-08-09T15:28:55.549Z,6.8
2022-08-09T15:31:07.451Z,7.5
2022-08-09T15:32:56.272Z,9.7
2022-08-09T15:34:57.390Z,11.5
2022-08-09T15:36:58.263Z,9.2
2022-08-09T15:38:57.636Z,8.6
2022-08-09T15:40:57.551Z,10.1
2022-08-09T15:42:57.964Z,10.7
2022-08-09T15:44:58.878Z,7.2
2022-08-09T15:46:58.626Z,8.4
2022-08-09T15:49:22.528Z,9.2
2022-08-09T15:51:00.105Z,6.9
2022-08-09T15:53:06.115Z,5.6
2022-08-09T15:55:00.236Z,8.4
2022-08-09T15:57:00.658Z,4.2
2022-08-09T15:59:00.814Z,8.9
2022-08-09T16:01:01.317Z,7.1
2022-08-09T16:03:01.588Z,7.1
2022-08-09T16:05:02.528Z,9.7
2022-08-09T16:07:03.226Z,14.2
2022-08-09T16:09:03.422Z,11.6
2022-08-09T16:11:03.183Z,8
2022-08-09T16:13:03.492Z,15.2
2022-08-09T16:16:11.468Z,9.1
2022-08-09T16:17:04.175Z,5.2
2022-08-09T16:19:05.133Z,8.6
2022-08-09T16:21:05.108Z,6.8
2022-08-09T16:23:05.218Z,6.5
2022-08-09T16:25:08.031Z,6.2
2022-08-09T16:27:05.935Z,10
2022-08-09T16:29:11.355Z,9.5
2022-08-09T16:31:16.222Z,9.2
2022-08-09T16:33:06.988Z,7.2
2022-08-09T16:35:07.589Z,8.8
2022-08-09T16:37:07.951Z,13.6
2022-08-09T16:39:08.369Z,9.4
2022-08-09T16:41:08.406Z,8.5
2022-08-09T16:43:08.923Z,14.8
2022-08-09T16:45:10.247Z,11.5
2022-08-09T16:48:43.283Z,10.5
2022-08-09T16:49:17.616Z,7.9
2022-08-09T16:51:13.691Z,10.5
2022-08-09T16:53:11.864Z,15.4
2022-08-09T16:55:12.083Z,15.9
2022-08-09T16:57:11.545Z,11.4
2022-08-09T16:59:11.707Z,7.7
2022-08-09T17:01:11.999Z,8.6
2022-08-09T17:03:13.153Z,8.9
2022-08-09T17:05:13.340Z,11
2022-08-09T17:08:44.724Z,6.8
2022-08-09T17:09:45.243Z,10.1
2022-08-09T17:11:13.957Z,11.1
2022-08-09T17:13:14.193Z,8.1
2022-08-09T17:15:30.628Z,9.7
2022-08-09T17:17:26.941Z,8
2022-08-09T17:19:15.194Z,11.3
2022-08-09T17:21:15.587Z,10.1
2022-08-09T17:23:15.910Z,12.9
2022-08-09T17:25:16.362Z,20.6
2022-08-09T17:27:16.613Z,13.3
2022-08-09T17:29:20.637Z,13.2
2022-08-09T17:31:17.283Z,16.8
2022-08-09T17:33:21.836Z,10.6
2022-08-09T17:35:18.010Z,15.8
2022-08-09T17:37:19.373Z,16.1
2022-08-09T17:39:18.789Z,14.7
2022-08-09T17:41:19.104Z,9.2
2022-08-09T17:43:33.770Z,10.6
2022-08-09T17:45:27.294Z,6.4
2022-08-09T17:47:20.150Z,10.3
2022-08-09T17:49:20.395Z,8.7
2022-08-09T17:51:21.334Z,11.7
2022-08-09T17:53:22.579Z,15.4
2022-08-09T17:55:21.484Z,9.8
2022-08-09T17:58:02.980Z,18
2022-08-09T17:59:23.472Z,19.9
2022-08-09T18:01:23.572Z,24
2022-08-09T18:03:23.662Z,17.4
2022-08-09T18:05:23.131Z,17.3
2022-08-09T18:07:23.939Z,17.4
2022-08-09T18:09:40.703Z,18.8
2022-08-09T18:11:24.217Z,22.9
2022-08-09T18:13:43.325Z,25.4
2022-08-09T18:15:27.550Z,15.2
2022-08-09T18:18:02.508Z,28.9
2022-08-09T18:20:57.268Z,21.6
2022-08-09T18:21:25.846Z,16.4
2022-08-09T18:24:11.363Z,17.7
2022-08-09T18:25:50.301Z,16.7
2022-08-09T18:27:59.888Z,14.2
2022-08-09T18:30:40.346Z,21
2022-08-09T18:31:51.372Z,13.9
2022-08-09T18:33:28.345Z,12.9
2022-08-09T18:35:40.059Z,15
2022-08-09T18:37:48.798Z,15.7
2022-08-09T18:39:32.479Z,13.3
2022-08-09T18:41:29.501Z,12.5
2022-08-09T18:43:29.421Z,19.5
2022-08-09T18:46:51.158Z,16.5
2022-08-09T18:47:37.237Z,11.8
2022-08-09T18:49:32.281Z,12.7
2022-08-09T18:51:38.601Z,7.9
2022-08-09T18:53:56.619Z,11.7
2022-08-09T18:55:45.597Z,14
2022-08-09T18:57:43.057Z,11.7
2022-08-09T18:59:37.170Z,8.8
2022-08-09T19:01:45.849Z,8.5
2022-08-09T19:03:54.607Z,10.2
2022-08-09T19:06:02.423Z,8.4
2022-08-09T19:07:33.635Z,7.7
2022-08-09T19:10:12.974Z,8.9
2022-08-09T19:11:37.606Z,6.9
2022-08-09T19:13:38.311Z,8.3
2022-08-09T19:15:34.589Z,9.9
2022-08-09T19:17:39.758Z,11.4
2022-08-09T19:19:37.038Z,6.7
2022-08-09T19:21:51.755Z,7.4
2022-08-09T19:24:33.205Z,3.6
2022-08-09T19:26:01.119Z,8.8
2022-08-09T19:27:36.515Z,8.7
2022-08-09T19:29:59.824Z,7.4
2022-08-09T19:31:44.816Z,5.8
2022-08-09T19:33:37.215Z,4.6
2022-08-09T19:35:57.405Z,7.1
2022-08-09T19:37:52.850Z,7
2022-08-09T19:40:03.305Z,6.8
2022-08-09T19:41:38.655Z,6.4
2022-08-09T19:44:01.046Z,7.2
2022-08-09T19:45:42.074Z,5.1
2022-08-09T19:47:39.537Z,8.1
2022-08-09T19:50:05.043Z,7.8
2022-08-09T19:51:40.049Z,5.8
2022-08-09T19:53:47.860Z,6
2022-08-09T19:56:02.568Z,5.9
2022-08-09T19:57:40.826Z,6.1
2022-08-09T20:00:01.886Z,4.7
2022-08-09T20:01:52.372Z,8
2022-08-09T20:04:17.016Z,7.7
2022-08-09T20:05:46.465Z,8.4
2022-08-09T20:07:59.356Z,7.9
2022-08-09T20:09:44.971Z,5.4
2022-08-09T20:11:51.512Z,7.1
2022-08-09T20:13:53.912Z,6.5
2022-08-09T20:16:36.847Z,5.5
2022-08-09T20:17:48.777Z,6.4
2022-08-09T20:19:49.002Z,6.5
2022-08-09T20:21:56.209Z,8.2
2022-08-09T20:23:44.687Z,8.2
2022-08-09T20:25:52.607Z,8.5
2022-08-09T20:27:45.305Z,8.2
2022-08-09T20:29:45.630Z,9.1
2022-08-09T20:32:16.857Z,10.4
2022-08-09T20:33:46.538Z,8.3
2022-08-09T20:35:46.506Z,9
2022-08-09T20:38:21.539Z,8.5
2022-08-09T20:40:15.654Z,6.2
2022-08-09T20:41:49.074Z,8
2022-08-09T20:43:47.733Z,7.7
2022-08-09T20:45:57.279Z,5.3
2022-08-09T20:47:48.848Z,8.2
2022-08-09T20:49:48.685Z,11.2
2022-08-09T20:51:50.571Z,12.1
2022-08-09T20:53:49.273Z,15.2
2022-08-09T20:56:00.903Z,13.1
2022-08-09T20:58:05.385Z,11.2
2022-08-09T21:00:20.025Z,9.8
2022-08-09T21:01:53.640Z,8.2
2022-08-09T21:05:48.438Z,9.9
2022-08-09T21:05:59.471Z,6.6
2022-08-09T21:07:51.258Z,6.3
2022-08-09T21:09:56.797Z,11.9
2022-08-09T21:13:59.128Z,9.4
2022-08-09T21:15:55.185Z,11.6
2022-08-09T21:18:11.664Z,12.5
2022-08-09T21:20:19.619Z,13.3
2022-08-09T21:21:57.195Z,12.7
2022-08-09T21:23:55.560Z,16.7
2022-08-09T21:25:55.937Z,13.6
2022-08-09T21:27:55.454Z,9.2
2022-08-09T21:29:54.138Z,12.9
2022-08-09T21:31:54.435Z,18
2022-08-09T21:33:56.926Z,23.5
2022-08-09T21:35:55.007Z,14.4
2022-08-09T21:38:00.014Z,16
2022-08-09T21:39:55.580Z,18.9
2022-08-09T21:42:05.033Z,18.3
2022-08-09T21:43:58.131Z,13.7
2022-08-09T21:45:56.366Z,16.3
2022-08-09T21:47:56.880Z,13.9
2022-08-09T21:49:56.851Z,15.2
2022-08-09T21:51:57.174Z,13.4
2022-08-09T21:53:57.398Z,13.2
2022-08-09T21:55:57.673Z,16
2022-08-09T21:57:59.614Z,19.5
2022-08-09T21:59:58.354Z,17.7
2022-08-09T22:02:00.411Z,23.7
2022-08-09T22:03:59.651Z,22.2
2022-08-09T22:05:58.903Z,25.6
2022-08-09T22:07:59.327Z,19.5
2022-08-09T22:09:59.446Z,26.8
2022-08-09T22:12:17.470Z,21.8
2022-08-09T22:14:00.375Z,17.9
2022-08-09T22:16:00.236Z,13.3
2022-08-09T22:18:00.441Z,13.3
2022-08-09T22:20:01.251Z,15.5
2022-08-09T22:22:01.137Z,16.9
2022-08-09T22:24:02.233Z,20.4
2022-08-09T22:26:06.899Z,15.4
2022-08-09T22:28:01.713Z,13.4
2022-08-09T22:30:02.083Z,14.5
2022-08-09T22:32:02.289Z,15.4
2022-08-09T22:34:02.595Z,12.6
2022-08-09T22:36:03.988Z,12.9
2022-08-09T22:38:07.118Z,16.6
2022-08-09T22:40:05.058Z,12.5
2022-08-09T22:42:04.086Z,9.6
2022-08-09T22:44:04.423Z,10
2022-08-09T22:48:11.849Z,10
2022-08-09T22:48:19.199Z,10.9
2022-08-09T22:50:05.486Z,8.8
2022-08-09T22:52:04.925Z,16.5
2022-08-09T22:54:05.115Z,11.3
2022-08-09T22:56:30.710Z,10.6
2022-08-09T22:58:05.493Z,12.9
2022-08-09T23:00:07.167Z,8.6
2022-08-09T23:02:06.112Z,15.7
2022-08-09T23:04:07.202Z,14
2022-08-09T23:06:06.328Z,11.3
2022-08-09T23:08:27.483Z,12.1
2022-08-09T23:10:07.122Z,9.5
2022-08-09T23:12:07.728Z,14.4
2022-08-09T23:14:09.904Z,11
2022-08-09T23:16:07.560Z,10.5
2022-08-09T23:18:07.628Z,8.7
2022-08-09T23:20:09.103Z,10.6
2022-08-09T23:22:08.104Z,13.8
2022-08-09T23:24:08.409Z,9.6
2022-08-09T23:26:08.679Z,10.7
2022-08-09T23:28:16.061Z,12.4
2022-08-09T23:30:09.881Z,9.8
2022-08-09T23:32:09.643Z,8.6
2022-08-09T23:34:09.909Z,14.9
2022-08-09T23:36:09.761Z,14.9
2022-08-09T23:38:09.895Z,10.5
2022-08-09T23:40:11.270Z,13.7
2022-08-09T23:42:10.337Z,12.6
2022-08-09T23:44:10.625Z,9.7
2022-08-09T23:46:10.796Z,13
2022-08-09T23:48:11.074Z,11
2022-08-09T23:50:11.323Z,15.4
2022-08-09T23:52:11.507Z,10.7
2022-08-09T23:54:11.675Z,9.1
2022-08-09T23:56:11.877Z,12
2022-08-09T23:58:25.969Z,9.3
